TUI1KN LEPA-EDDF
Flight info
| Callsign | TUI1KN |
|---|---|
| Flight time | N/A |
| Altitude | 38000 |
| Route | MERO5A MEROS DCT LAPIT DCT CHELY DCT LUMAS DCT MAXIR DCT LUSOL DCT BODRU DCT OKTET DCT IRMAR DCT KINES DCT VANAS DCT MOBLO DCT UBIMA DCT SOSAL DCT KORED DCT BERSU N871 DITON DCT LADOL T163 EMPAX EMPA5B |
| Aircraft | B738/M-V/N |
Departure
| Time | N/A |
|---|---|
| Airport | Palma de Mallorca Airport (LEPA) |
Arrival
| Time | 2026-05-04 19:14 |
|---|---|
| Airport | Frankfurt Main Airport (EDDF) |
| Time | Latitude | Longitude | Altitude | Speed | Heading |
|---|---|---|---|---|---|
| 2026-05-04 18:40 | 48.02434 | 8.84914 | 37990 ft | 473 kts | 24° |
| 2026-05-04 18:41 | 48.08342 | 8.89206 | 37990 ft | 473 kts | 25° |
| 2026-05-04 18:41 | 48.14278 | 8.93499 | 37985 ft | 472 kts | 21° |
| 2026-05-04 18:42 | 48.20564 | 8.96093 | 37978 ft | 467 kts | 4° |
| 2026-05-04 18:42 | 48.26981 | 8.96980 | 37980 ft | 456 kts | 2° |
| 2026-05-04 18:43 | 48.33222 | 8.97825 | 37896 ft | 446 kts | 3° |
| 2026-05-04 18:43 | 48.36310 | 8.98281 | 37205 ft | 447 kts | 3° |
| 2026-05-04 18:43 | 48.39439 | 8.98757 | 36263 ft | 456 kts | 4° |
| 2026-05-04 18:43 | 48.42623 | 8.99246 | 35332 ft | 466 kts | 4° |
| 2026-05-04 18:44 | 48.45878 | 8.99747 | 34425 ft | 473 kts | 4° |
| 2026-05-04 18:44 | 48.48058 | 9.00082 | 33855 ft | 478 kts | 4° |
| 2026-05-04 18:44 | 48.52513 | 9.00767 | 32625 ft | 483 kts | 4° |
| 2026-05-04 18:44 | 48.55867 | 9.01283 | 31773 ft | 486 kts | 4° |
| 2026-05-04 18:45 | 48.59242 | 9.01803 | 30943 ft | 489 kts | 4° |
| 2026-05-04 18:45 | 48.62632 | 9.02327 | 30188 ft | 489 kts | 4° |
| 2026-05-04 18:45 | 48.66014 | 9.02973 | 29232 ft | 491 kts | 6° |
| 2026-05-04 18:45 | 48.69396 | 9.03783 | 28347 ft | 491 kts | 8° |
| 2026-05-04 18:46 | 48.72758 | 9.04645 | 27609 ft | 488 kts | 8° |
| 2026-05-04 18:46 | 48.76055 | 9.05488 | 27327 ft | 473 kts | 7° |
| 2026-05-04 18:46 | 48.79319 | 9.06296 | 26392 ft | 479 kts | 7° |
| 2026-05-04 18:46 | 48.82650 | 9.07095 | 25522 ft | 490 kts | 7° |
| 2026-05-04 18:47 | 48.86024 | 9.07899 | 24806 ft | 490 kts | 7° |
| 2026-05-04 18:47 | 48.89375 | 9.08670 | 24141 ft | 483 kts | 5° |
| 2026-05-04 18:47 | 48.92690 | 9.09193 | 23462 ft | 476 kts | 3° |
| 2026-05-04 18:47 | 48.95936 | 9.09584 | 22711 ft | 471 kts | 2° |
| 2026-05-04 18:48 | 48.99179 | 9.09992 | 22022 ft | 464 kts | 3° |
| 2026-05-04 18:48 | 49.02375 | 9.10431 | 21369 ft | 458 kts | 4° |
| 2026-05-04 18:48 | 49.05572 | 9.10887 | 20708 ft | 453 kts | 4° |
| 2026-05-04 18:48 | 49.08655 | 9.11331 | 20087 ft | 448 kts | 4° |
| 2026-05-04 18:49 | 49.11739 | 9.11775 | 19465 ft | 444 kts | 4° |
| 2026-05-04 18:49 | 49.14797 | 9.12215 | 18847 ft | 439 kts | 4° |
| 2026-05-04 18:49 | 49.17827 | 9.12649 | 18218 ft | 436 kts | 4° |
| 2026-05-04 18:49 | 49.20838 | 9.13080 | 17508 ft | 431 kts | 4° |
| 2026-05-04 18:50 | 49.23810 | 9.13506 | 16862 ft | 426 kts | 4° |
| 2026-05-04 18:50 | 49.26746 | 9.13928 | 16239 ft | 421 kts | 4° |
| 2026-05-04 18:50 | 49.29639 | 9.14435 | 15656 ft | 417 kts | 8° |
| 2026-05-04 18:50 | 49.32464 | 9.15324 | 15105 ft | 413 kts | 12° |
| 2026-05-04 18:51 | 49.35267 | 9.16390 | 14553 ft | 417 kts | 13° |
| 2026-05-04 18:51 | 49.38076 | 9.17487 | 13818 ft | 417 kts | 13° |
| 2026-05-04 18:51 | 49.40873 | 9.18550 | 13133 ft | 413 kts | 13° |
| 2026-05-04 18:51 | 49.43645 | 9.19568 | 12516 ft | 407 kts | 12° |
| 2026-05-04 18:52 | 49.46390 | 9.20551 | 11931 ft | 401 kts | 12° |
| 2026-05-04 18:52 | 49.49090 | 9.21510 | 11368 ft | 396 kts | 12° |
| 2026-05-04 18:52 | 49.51747 | 9.22454 | 11015 ft | 386 kts | 12° |
| 2026-05-04 18:52 | 49.54314 | 9.23369 | 10860 ft | 371 kts | 12° |
| 2026-05-04 18:53 | 49.56785 | 9.24251 | 10705 ft | 358 kts | 12° |
| 2026-05-04 18:53 | 49.59175 | 9.25105 | 10566 ft | 346 kts | 12° |
| 2026-05-04 18:53 | 49.61449 | 9.25918 | 10455 ft | 335 kts | 12° |
| 2026-05-04 18:53 | 49.63686 | 9.26719 | 10302 ft | 325 kts | 12° |
| 2026-05-04 18:54 | 49.65853 | 9.27496 | 10190 ft | 315 kts | 12° |
| 2026-05-04 18:54 | 49.67955 | 9.28250 | 10073 ft | 306 kts | 12° |
| 2026-05-04 18:54 | 49.70006 | 9.28986 | 9978 ft | 300 kts | 12° |
| 2026-05-04 18:54 | 49.72027 | 9.29715 | 9989 ft | 296 kts | 12° |
| 2026-05-04 18:55 | 49.74020 | 9.30434 | 9974 ft | 294 kts | 12° |
| 2026-05-04 18:55 | 49.78007 | 9.31894 | 9920 ft | 293 kts | 12° |
| 2026-05-04 18:55 | 49.80016 | 9.32612 | 9558 ft | 299 kts | 12° |
| 2026-05-04 18:56 | 49.82030 | 9.33326 | 9428 ft | 294 kts | 10° |
| 2026-05-04 18:56 | 49.84032 | 9.33378 | 9291 ft | 285 kts | 343° |
| 2026-05-04 18:56 | 49.85768 | 9.32104 | 9219 ft | 273 kts | 317° |
| 2026-05-04 18:56 | 49.87021 | 9.29936 | 9165 ft | 270 kts | 297° |
| 2026-05-04 18:57 | 49.87722 | 9.27282 | 9097 ft | 271 kts | 284° |
| 2026-05-04 18:57 | 49.88262 | 9.24470 | 9002 ft | 272 kts | 283° |
| 2026-05-04 18:57 | 49.88781 | 9.21667 | 8894 ft | 270 kts | 283° |
| 2026-05-04 18:57 | 49.89342 | 9.18901 | 8805 ft | 270 kts | 292° |
| 2026-05-04 18:58 | 49.90504 | 9.16576 | 8552 ft | 281 kts | 319° |
| 2026-05-04 18:58 | 49.92262 | 9.15215 | 8260 ft | 287 kts | 343° |
| 2026-05-04 18:58 | 49.94216 | 9.14570 | 7982 ft | 287 kts | 348° |
| 2026-05-04 18:58 | 49.96179 | 9.14032 | 7664 ft | 286 kts | 348° |
| 2026-05-04 18:59 | 49.98134 | 9.13509 | 7366 ft | 285 kts | 348° |
| 2026-05-04 18:59 | 50.00075 | 9.12945 | 7071 ft | 283 kts | 342° |
| 2026-05-04 18:59 | 50.01810 | 9.11642 | 6759 ft | 272 kts | 326° |
| 2026-05-04 18:59 | 50.03382 | 9.10049 | 6470 ft | 267 kts | 324° |
| 2026-05-04 19:00 | 50.04909 | 9.08450 | 6172 ft | 263 kts | 324° |
| 2026-05-04 19:00 | 50.06410 | 9.06861 | 5864 ft | 259 kts | 324° |
| 2026-05-04 19:00 | 50.07591 | 9.05594 | 5609 ft | 255 kts | 324° |
| 2026-05-04 19:00 | 50.08823 | 9.03692 | 5279 ft | 248 kts | 297° |
| 2026-05-04 19:01 | 50.09432 | 9.01235 | 5005 ft | 241 kts | 285° |
| 2026-05-04 19:01 | 50.09884 | 8.98730 | 4702 ft | 239 kts | 284° |
| 2026-05-04 19:01 | 50.10310 | 8.96245 | 4392 ft | 236 kts | 284° |
| 2026-05-04 19:01 | 50.10722 | 8.93793 | 4130 ft | 231 kts | 284° |
| 2026-05-04 19:02 | 50.11110 | 8.91434 | 4034 ft | 216 kts | 283° |
| 2026-05-04 19:02 | 50.11468 | 8.89241 | 4006 ft | 202 kts | 283° |
| 2026-05-04 19:02 | 50.11816 | 8.87107 | 4012 ft | 208 kts | 283° |
| 2026-05-04 19:02 | 50.11841 | 8.84848 | 4000 ft | 212 kts | 255° |
| 2026-05-04 19:03 | 50.11471 | 8.82628 | 4007 ft | 213 kts | 255° |
| 2026-05-04 19:03 | 50.11147 | 8.80382 | 3993 ft | 211 kts | 252° |
| 2026-05-04 19:03 | 50.10591 | 8.78281 | 3993 ft | 210 kts | 245° |
| 2026-05-04 19:03 | 50.10096 | 8.76184 | 4016 ft | 208 kts | 254° |
| 2026-05-04 19:04 | 50.09867 | 8.73965 | 4028 ft | 208 kts | 269° |
| 2026-05-04 19:04 | 50.10182 | 8.71834 | 4469 ft | 206 kts | 297° |
| 2026-05-04 19:04 | 50.11142 | 8.70006 | 4932 ft | 235 kts | 317° |
| 2026-05-04 19:04 | 50.12575 | 8.68612 | 4914 ft | 245 kts | 343° |
| 2026-05-04 19:05 | 50.14237 | 8.68496 | 4913 ft | 245 kts | 14° |
| 2026-05-04 19:05 | 50.15715 | 8.69721 | 4938 ft | 242 kts | 46° |
| 2026-05-04 19:05 | 50.16738 | 8.71790 | 4941 ft | 242 kts | 58° |
| 2026-05-04 19:05 | 50.17412 | 8.74189 | 4889 ft | 243 kts | 72° |
| 2026-05-04 19:06 | 50.17935 | 8.76713 | 4709 ft | 245 kts | 73° |
| 2026-05-04 19:06 | 50.18447 | 8.79234 | 4519 ft | 241 kts | 73° |
| 2026-05-04 19:06 | 50.18944 | 8.81708 | 4373 ft | 235 kts | 73° |
| 2026-05-04 19:06 | 50.19427 | 8.84125 | 4270 ft | 232 kts | 73° |
| 2026-05-04 19:07 | 50.19746 | 8.85724 | 4206 ft | 233 kts | 73° |
| 2026-05-04 19:07 | 50.19912 | 8.88226 | 4071 ft | 235 kts | 102° |
| 2026-05-04 19:07 | 50.19209 | 8.90486 | 4015 ft | 234 kts | 134° |
| 2026-05-04 19:07 | 50.17857 | 8.91842 | 4007 ft | 230 kts | 160° |
| 2026-05-04 19:08 | 50.16364 | 8.92620 | 3988 ft | 221 kts | 163° |
| 2026-05-04 19:08 | 50.14874 | 8.92892 | 3980 ft | 216 kts | 192° |
| 2026-05-04 19:08 | 50.13562 | 8.91885 | 4009 ft | 211 kts | 220° |
| 2026-05-04 19:08 | 50.12487 | 8.90371 | 4008 ft | 206 kts | 223° |
| 2026-05-04 19:09 | 50.11461 | 8.88824 | 4008 ft | 207 kts | 229° |
| 2026-05-04 19:09 | 50.10788 | 8.86832 | 4007 ft | 211 kts | 249° |
| 2026-05-04 19:09 | 50.10259 | 8.84662 | 3838 ft | 217 kts | 248° |
| 2026-05-04 19:09 | 50.09715 | 8.82453 | 3556 ft | 218 kts | 249° |
| 2026-05-04 19:10 | 50.09186 | 8.80270 | 3273 ft | 213 kts | 250° |
| 2026-05-04 19:10 | 50.08839 | 8.78829 | 3082 ft | 209 kts | 250° |
| 2026-05-04 19:10 | 50.08175 | 8.76063 | 2719 ft | 200 kts | 250° |
| 2026-05-04 19:10 | 50.07700 | 8.74088 | 2452 ft | 189 kts | 251° |
| 2026-05-04 19:11 | 50.07252 | 8.72221 | 2203 ft | 180 kts | 251° |
| 2026-05-04 19:11 | 50.06824 | 8.70437 | 1968 ft | 173 kts | 251° |
| 2026-05-04 19:11 | 50.06406 | 8.68692 | 1770 ft | 173 kts | 251° |
| 2026-05-04 19:11 | 50.05983 | 8.66928 | 1529 ft | 171 kts | 251° |
| 2026-05-04 19:12 | 50.05581 | 8.65248 | 1320 ft | 158 kts | 251° |
| 2026-05-04 19:12 | 50.04855 | 8.62210 | 882 ft | 146 kts | 251° |
| 2026-05-04 19:12 | 50.04500 | 8.60724 | 685 ft | 146 kts | 252° |
| 2026-05-04 19:13 | 50.04147 | 8.59243 | 478 ft | 146 kts | 251° |
| 2026-05-04 19:13 | 50.03799 | 8.57793 | 363 ft | 138 kts | 251° |
| 2026-05-04 19:13 | 50.03524 | 8.56633 | 356 ft | 83 kts | 250° |
| 2026-05-04 19:13 | 50.03378 | 8.56019 | 358 ft | 53 kts | 250° |
| 2026-05-04 19:14 | 50.03309 | 8.55605 | 350 ft | 32 kts | 270° |
| 2026-05-04 19:14 | 50.03333 | 8.55319 | 358 ft | 23 kts | 280° |
| 2026-05-04 19:14 | 50.03399 | 8.55169 | 357 ft | 17 kts | 12° |
| 2026-05-04 19:14 | 50.03455 | 8.55320 | 360 ft | 16 kts | 70° |
| 2026-05-04 19:15 | 50.03495 | 8.55482 | 361 ft | 16 kts | 70° |
| 2026-05-04 19:15 | 50.03532 | 8.55638 | 359 ft | 15 kts | 70° |
| 2026-05-04 19:15 | 50.03567 | 8.55788 | 363 ft | 15 kts | 70° |
| 2026-05-04 19:15 | 50.03615 | 8.55989 | 359 ft | 24 kts | 69° |
| 2026-05-04 19:16 | 50.03678 | 8.56248 | 360 ft | 25 kts | 70° |
| 2026-05-04 19:16 | 50.03737 | 8.56497 | 362 ft | 24 kts | 70° |
| 2026-05-04 19:16 | 50.03792 | 8.56728 | 363 ft | 23 kts | 69° |
| 2026-05-04 19:16 | 50.03846 | 8.56954 | 359 ft | 22 kts | 69° |
| 2026-05-04 19:17 | 50.03899 | 8.57174 | 364 ft | 21 kts | 70° |
| 2026-05-04 19:17 | 50.03949 | 8.57387 | 360 ft | 21 kts | 69° |
| 2026-05-04 19:17 | 50.03999 | 8.57595 | 361 ft | 20 kts | 69° |
| 2026-05-04 19:17 | 50.04047 | 8.57795 | 362 ft | 19 kts | 69° |
| 2026-05-04 19:18 | 50.04094 | 8.57989 | 360 ft | 19 kts | 70° |
| 2026-05-04 19:18 | 50.04138 | 8.58177 | 359 ft | 18 kts | 70° |
| 2026-05-04 19:18 | 50.04182 | 8.58359 | 362 ft | 18 kts | 69° |
| 2026-05-04 19:18 | 50.04224 | 8.58534 | 364 ft | 17 kts | 69° |
| 2026-05-04 19:19 | 50.04264 | 8.58703 | 363 ft | 16 kts | 69° |
| 2026-05-04 19:19 | 50.04304 | 8.58865 | 363 ft | 16 kts | 69° |
| 2026-05-04 19:19 | 50.04342 | 8.59021 | 365 ft | 15 kts | 69° |
| 2026-05-04 19:19 | 50.04378 | 8.59171 | 362 ft | 14 kts | 69° |
| 2026-05-04 19:20 | 50.04412 | 8.59315 | 359 ft | 14 kts | 70° |
| 2026-05-04 19:20 | 50.04450 | 8.59447 | 360 ft | 13 kts | 47° |
| 2026-05-04 19:20 | 50.04538 | 8.59469 | 359 ft | 14 kts | 358° |
| 2026-05-04 19:20 | 50.04646 | 8.59460 | 365 ft | 16 kts | 354° |
| 2026-05-04 19:21 | 50.04749 | 8.59414 | 362 ft | 15 kts | 336° |
| 2026-05-04 19:21 | 50.04846 | 8.59362 | 363 ft | 15 kts | 351° |
| 2026-05-04 19:21 | 50.04933 | 8.59372 | 361 ft | 12 kts | 351° |
| 2026-05-04 19:21 | 50.05008 | 8.59330 | 361 ft | 11 kts | 336° |
| 2026-05-04 19:22 | 50.05072 | 8.59271 | 360 ft | 11 kts | 301° |
| 2026-05-04 19:22 | 50.05067 | 8.59158 | 360 ft | 11 kts | 250° |
| 2026-05-04 19:22 | 50.05043 | 8.59055 | 361 ft | 9 kts | 249° |
| 2026-05-04 19:22 | 50.05021 | 8.58964 | 361 ft | 8 kts | 250° |
| 2026-05-04 19:23 | 50.05001 | 8.58882 | 361 ft | 7 kts | 250° |
| 2026-05-04 19:23 | 50.05008 | 8.58816 | 364 ft | 7 kts | 333° |
| 2026-05-04 19:23 | 50.05050 | 8.58778 | 364 ft | 7 kts | 320° |
| 2026-05-04 19:23 | 50.05061 | 8.58761 | 361 ft | 0 kts | 317° |